sensor_id;sensor_type;location;lat;lon;timestamp;P1;durP1;ratioP1;P2;durP2;ratioP2
25155;SDS011;71253;51.496;7.606;2024-02-26T00:04:53;8.45;;;3.20;;
25155;SDS011;71253;51.496;7.606;2024-02-26T00:09:55;5.00;;;2.60;;
25155;SDS011;71253;51.496;7.606;2024-02-26T00:14:56;5.47;;;2.33;;
25155;SDS011;71253;51.496;7.606;2024-02-26T00:19:58;4.60;;;2.10;;
25155;SDS011;71253;51.496;7.606;2024-02-26T00:25:00;9.38;;;2.30;;
25155;SDS011;71253;51.496;7.606;2024-02-26T00:30:01;4.43;;;2.20;;
25155;SDS011;71253;51.496;7.606;2024-02-26T00:35:03;4.65;;;2.30;;
25155;SDS011;71253;51.496;7.606;2024-02-26T00:40:05;5.70;;;2.25;;
25155;SDS011;71253;51.496;7.606;2024-02-26T00:45:07;5.72;;;2.10;;
25155;SDS011;71253;51.496;7.606;2024-02-26T00:50:09;4.47;;;2.00;;
25155;SDS011;71253;51.496;7.606;2024-02-26T00:55:11;4.75;;;2.08;;
25155;SDS011;71253;51.496;7.606;2024-02-26T01:00:13;4.18;;;2.00;;
25155;SDS011;71253;51.496;7.606;2024-02-26T01:05:15;4.00;;;2.10;;
25155;SDS011;71253;51.496;7.606;2024-02-26T01:10:16;4.53;;;1.63;;
25155;SDS011;71253;51.496;7.606;2024-02-26T01:15:18;5.60;;;1.90;;
25155;SDS011;71253;51.496;7.606;2024-02-26T01:20:20;4.38;;;1.90;;
25155;SDS011;71253;51.496;7.606;2024-02-26T01:25:21;3.47;;;1.70;;
25155;SDS011;71253;51.496;7.606;2024-02-26T01:30:23;4.85;;;1.70;;
25155;SDS011;71253;51.496;7.606;2024-02-26T01:35:24;4.25;;;1.92;;
25155;SDS011;71253;51.496;7.606;2024-02-26T01:40:26;4.80;;;1.80;;
25155;SDS011;71253;51.496;7.606;2024-02-26T01:45:28;3.22;;;1.63;;
25155;SDS011;71253;51.496;7.606;2024-02-26T01:50:30;4.65;;;1.77;;
25155;SDS011;71253;51.496;7.606;2024-02-26T01:55:31;4.22;;;1.98;;
25155;SDS011;71253;51.496;7.606;2024-02-26T02:00:33;4.95;;;2.20;;
25155;SDS011;71253;51.496;7.606;2024-02-26T02:05:36;4.80;;;1.90;;
25155;SDS011;71253;51.496;7.606;2024-02-26T02:10:38;5.57;;;2.25;;
25155;SDS011;71253;51.496;7.606;2024-02-26T02:15:40;6.75;;;2.22;;
25155;SDS011;71253;51.496;7.606;2024-02-26T02:20:41;7.93;;;2.15;;
25155;SDS011;71253;51.496;7.606;2024-02-26T02:25:43;4.35;;;2.17;;
25155;SDS011;71253;51.496;7.606;2024-02-26T02:30:44;3.50;;;2.00;;
25155;SDS011;71253;51.496;7.606;2024-02-26T02:35:46;4.07;;;2.25;;
25155;SDS011;71253;51.496;7.606;2024-02-26T02:40:49;5.00;;;2.40;;
25155;SDS011;71253;51.496;7.606;2024-02-26T02:45:50;10.10;;;2.35;;
25155;SDS011;71253;51.496;7.606;2024-02-26T02:50:52;5.43;;;2.70;;
25155;SDS011;71253;51.496;7.606;2024-02-26T02:55:53;4.70;;;2.20;;
25155;SDS011;71253;51.496;7.606;2024-02-26T03:00:55;3.63;;;2.35;;
25155;SDS011;71253;51.496;7.606;2024-02-26T03:05:56;7.78;;;2.53;;
25155;SDS011;71253;51.496;7.606;2024-02-26T03:10:58;5.88;;;2.47;;
25155;SDS011;71253;51.496;7.606;2024-02-26T03:16:04;5.53;;;2.42;;
25155;SDS011;71253;51.496;7.606;2024-02-26T03:21:06;4.55;;;2.30;;
25155;SDS011;71253;51.496;7.606;2024-02-26T03:26:08;4.50;;;2.20;;
25155;SDS011;71253;51.496;7.606;2024-02-26T03:31:10;4.88;;;2.30;;
25155;SDS011;71253;51.496;7.606;2024-02-26T03:36:11;11.48;;;2.72;;
25155;SDS011;71253;51.496;7.606;2024-02-26T03:41:13;4.85;;;2.63;;
25155;SDS011;71253;51.496;7.606;2024-02-26T03:46:15;6.43;;;2.67;;
25155;SDS011;71253;51.496;7.606;2024-02-26T03:51:16;8.50;;;2.90;;
25155;SDS011;71253;51.496;7.606;2024-02-26T03:56:18;8.27;;;3.00;;
25155;SDS011;71253;51.496;7.606;2024-02-26T04:01:20;6.05;;;2.92;;
25155;SDS011;71253;51.496;7.606;2024-02-26T04:06:21;6.38;;;2.88;;
25155;SDS011;71253;51.496;7.606;2024-02-26T04:11:23;4.80;;;3.03;;
25155;SDS011;71253;51.496;7.606;2024-02-26T04:16:24;6.53;;;2.92;;
25155;SDS011;71253;51.496;7.606;2024-02-26T04:21:26;5.68;;;2.90;;
25155;SDS011;71253;51.496;7.606;2024-02-26T04:26:28;5.60;;;3.00;;
25155;SDS011;71253;51.496;7.606;2024-02-26T04:31:30;6.68;;;3.10;;
25155;SDS011;71253;51.496;7.606;2024-02-26T04:36:31;6.72;;;2.67;;
25155;SDS011;71253;51.496;7.606;2024-02-26T04:41:33;3.97;;;2.67;;
25155;SDS011;71253;51.496;7.606;2024-02-26T04:46:35;6.68;;;3.03;;
25155;SDS011;71253;51.496;7.606;2024-02-26T04:51:36;4.55;;;2.75;;
25155;SDS011;71253;51.496;7.606;2024-02-26T04:56:38;4.82;;;2.50;;
25155;SDS011;71253;51.496;7.606;2024-02-26T05:01:39;7.70;;;2.80;;
25155;SDS011;71253;51.496;7.606;2024-02-26T05:06:41;4.53;;;2.75;;
25155;SDS011;71253;51.496;7.606;2024-02-26T05:11:42;4.63;;;2.60;;
25155;SDS011;71253;51.496;7.606;2024-02-26T05:16:44;7.15;;;2.50;;
25155;SDS011;71253;51.496;7.606;2024-02-26T05:21:45;5.03;;;2.40;;
25155;SDS011;71253;51.496;7.606;2024-02-26T05:26:47;7.13;;;2.80;;
25155;SDS011;71253;51.496;7.606;2024-02-26T05:31:48;7.43;;;2.67;;
25155;SDS011;71253;51.496;7.606;2024-02-26T05:36:50;4.78;;;2.58;;
25155;SDS011;71253;51.496;7.606;2024-02-26T05:41:52;4.40;;;2.50;;
25155;SDS011;71253;51.496;7.606;2024-02-26T05:46:53;8.77;;;2.83;;
25155;SDS011;71253;51.496;7.606;2024-02-26T05:51:55;5.65;;;3.08;;
25155;SDS011;71253;51.496;7.606;2024-02-26T05:56:57;5.82;;;3.10;;
25155;SDS011;71253;51.496;7.606;2024-02-26T06:01:59;7.22;;;3.63;;
25155;SDS011;71253;51.496;7.606;2024-02-26T06:07:00;7.80;;;3.60;;
25155;SDS011;71253;51.496;7.606;2024-02-26T06:12:02;6.45;;;3.40;;
25155;SDS011;71253;51.496;7.606;2024-02-26T06:17:04;8.50;;;3.55;;
25155;SDS011;71253;51.496;7.606;2024-02-26T06:22:06;6.43;;;3.78;;
25155;SDS011;71253;51.496;7.606;2024-02-26T06:27:07;7.93;;;4.18;;
25155;SDS011;71253;51.496;7.606;2024-02-26T06:32:09;9.68;;;3.90;;
25155;SDS011;71253;51.496;7.606;2024-02-26T06:37:11;9.57;;;4.53;;
25155;SDS011;71253;51.496;7.606;2024-02-26T06:42:13;13.38;;;4.65;;
25155;SDS011;71253;51.496;7.606;2024-02-26T06:47:15;9.15;;;4.00;;
25155;SDS011;71253;51.496;7.606;2024-02-26T06:52:16;12.77;;;4.28;;
25155;SDS011;71253;51.496;7.606;2024-02-26T06:57:21;8.80;;;4.00;;
25155;SDS011;71253;51.496;7.606;2024-02-26T07:02:23;6.63;;;4.00;;
25155;SDS011;71253;51.496;7.606;2024-02-26T07:07:25;6.28;;;3.75;;
25155;SDS011;71253;51.496;7.606;2024-02-26T07:12:27;8.43;;;4.30;;
25155;SDS011;71253;51.496;7.606;2024-02-26T07:17:28;7.93;;;3.95;;
25155;SDS011;71253;51.496;7.606;2024-02-26T07:22:30;12.15;;;4.35;;
25155;SDS011;71253;51.496;7.606;2024-02-26T07:27:31;13.65;;;4.80;;
25155;SDS011;71253;51.496;7.606;2024-02-26T07:32:33;8.43;;;4.45;;
25155;SDS011;71253;51.496;7.606;2024-02-26T07:37:35;12.88;;;4.78;;
25155;SDS011;71253;51.496;7.606;2024-02-26T07:42:36;11.30;;;4.07;;
25155;SDS011;71253;51.496;7.606;2024-02-26T07:47:38;11.20;;;4.35;;
25155;SDS011;71253;51.496;7.606;2024-02-26T07:52:39;10.18;;;4.50;;
25155;SDS011;71253;51.496;7.606;2024-02-26T07:57:42;11.93;;;4.43;;
25155;SDS011;71253;51.496;7.606;2024-02-26T08:02:44;12.48;;;4.43;;
25155;SDS011;71253;51.496;7.606;2024-02-26T08:07:45;8.13;;;4.30;;
25155;SDS011;71253;51.496;7.606;2024-02-26T08:12:47;10.00;;;4.75;;
25155;SDS011;71253;51.496;7.606;2024-02-26T08:17:48;12.07;;;4.43;;
25155;SDS011;71253;51.496;7.606;2024-02-26T08:22:50;13.80;;;4.70;;
25155;SDS011;71253;51.496;7.606;2024-02-26T08:27:52;14.13;;;4.93;;
25155;SDS011;71253;51.496;7.606;2024-02-26T08:32:53;9.95;;;4.85;;
25155;SDS011;71253;51.496;7.606;2024-02-26T08:37:55;9.98;;;4.72;;
25155;SDS011;71253;51.496;7.606;2024-02-26T08:42:57;10.40;;;4.60;;
25155;SDS011;71253;51.496;7.606;2024-02-26T08:47:58;14.63;;;5.07;;
25155;SDS011;71253;51.496;7.606;2024-02-26T08:53:00;11.02;;;4.70;;
25155;SDS011;71253;51.496;7.606;2024-02-26T08:58:02;10.68;;;5.13;;
25155;SDS011;71253;51.496;7.606;2024-02-26T09:03:04;9.93;;;5.20;;
25155;SDS011;71253;51.496;7.606;2024-02-26T09:08:06;11.35;;;6.15;;
25155;SDS011;71253;51.496;7.606;2024-02-26T09:13:08;12.52;;;5.82;;
25155;SDS011;71253;51.496;7.606;2024-02-26T09:18:09;9.98;;;5.65;;
25155;SDS011;71253;51.496;7.606;2024-02-26T09:23:11;11.63;;;5.50;;
25155;SDS011;71253;51.496;7.606;2024-02-26T09:28:13;10.57;;;5.97;;
25155;SDS011;71253;51.496;7.606;2024-02-26T09:33:14;11.00;;;5.95;;
25155;SDS011;71253;51.496;7.606;2024-02-26T09:38:16;9.40;;;5.75;;
25155;SDS011;71253;51.496;7.606;2024-02-26T09:43:18;16.05;;;6.55;;
25155;SDS011;71253;51.496;7.606;2024-02-26T09:48:23;14.90;;;6.45;;
25155;SDS011;71253;51.496;7.606;2024-02-26T09:53:25;13.88;;;7.15;;
25155;SDS011;71253;51.496;7.606;2024-02-26T09:58:27;14.57;;;7.20;;
25155;SDS011;71253;51.496;7.606;2024-02-26T10:03:51;11.68;;;6.35;;
25155;SDS011;71253;51.496;7.606;2024-02-26T10:08:56;9.32;;;5.60;;
25155;SDS011;71253;51.496;7.606;2024-02-26T10:13:58;15.95;;;5.95;;
25155;SDS011;71253;51.496;7.606;2024-02-26T10:18:59;12.27;;;6.07;;
25155;SDS011;71253;51.496;7.606;2024-02-26T10:24:01;15.23;;;6.10;;
25155;SDS011;71253;51.496;7.606;2024-02-26T10:29:03;10.68;;;6.60;;
25155;SDS011;71253;51.496;7.606;2024-02-26T10:34:04;12.77;;;6.60;;
25155;SDS011;71253;51.496;7.606;2024-02-26T10:39:06;15.85;;;7.82;;
25155;SDS011;71253;51.496;7.606;2024-02-26T10:44:09;12.57;;;7.70;;
25155;SDS011;71253;51.496;7.606;2024-02-26T10:49:13;16.20;;;8.38;;
25155;SDS011;71253;51.496;7.606;2024-02-26T10:54:17;15.15;;;8.82;;
25155;SDS011;71253;51.496;7.606;2024-02-26T10:59:19;14.60;;;8.25;;
25155;SDS011;71253;51.496;7.606;2024-02-26T11:04:21;19.65;;;8.77;;
25155;SDS011;71253;51.496;7.606;2024-02-26T11:09:23;15.95;;;8.77;;
25155;SDS011;71253;51.496;7.606;2024-02-26T11:14:26;21.08;;;9.80;;
25155;SDS011;71253;51.496;7.606;2024-02-26T11:19:27;21.48;;;10.27;;
25155;SDS011;71253;51.496;7.606;2024-02-26T11:24:31;18.67;;;10.32;;
25155;SDS011;71253;51.496;7.606;2024-02-26T11:29:34;12.77;;;8.07;;
25155;SDS011;71253;51.496;7.606;2024-02-26T11:34:40;15.38;;;8.18;;
25155;SDS011;71253;51.496;7.606;2024-02-26T11:39:45;14.10;;;8.18;;
25155;SDS011;71253;51.496;7.606;2024-02-26T11:44:47;22.10;;;8.90;;
25155;SDS011;71253;51.496;7.606;2024-02-26T11:49:49;16.63;;;8.23;;
25155;SDS011;71253;51.496;7.606;2024-02-26T11:54:54;12.43;;;7.55;;
25155;SDS011;71253;51.496;7.606;2024-02-26T12:10:23;10.18;;;5.90;;
25155;SDS011;71253;51.496;7.606;2024-02-26T12:15:29;13.55;;;6.40;;
25155;SDS011;71253;51.496;7.606;2024-02-26T12:20:32;13.70;;;6.97;;
25155;SDS011;71253;51.496;7.606;2024-02-26T12:25:33;13.48;;;7.55;;
25155;SDS011;71253;51.496;7.606;2024-02-26T12:30:35;15.93;;;8.60;;
25155;SDS011;71253;51.496;7.606;2024-02-26T12:35:36;19.13;;;9.55;;
25155;SDS011;71253;51.496;7.606;2024-02-26T12:40:38;18.70;;;8.95;;
25155;SDS011;71253;51.496;7.606;2024-02-26T12:45:40;20.38;;;10.57;;
25155;SDS011;71253;51.496;7.606;2024-02-26T12:50:45;17.95;;;10.02;;
25155;SDS011;71253;51.496;7.606;2024-02-26T12:55:47;18.17;;;10.40;;
25155;SDS011;71253;51.496;7.606;2024-02-26T13:00:49;20.83;;;10.38;;
25155;SDS011;71253;51.496;7.606;2024-02-26T13:05:51;19.75;;;10.25;;
25155;SDS011;71253;51.496;7.606;2024-02-26T13:10:53;20.58;;;10.15;;
25155;SDS011;71253;51.496;7.606;2024-02-26T13:16:01;19.20;;;9.80;;
25155;SDS011;71253;51.496;7.606;2024-02-26T13:21:07;15.48;;;9.05;;
25155;SDS011;71253;51.496;7.606;2024-02-26T13:26:13;18.10;;;9.88;;
25155;SDS011;71253;51.496;7.606;2024-02-26T13:31:14;18.85;;;8.52;;
25155;SDS011;71253;51.496;7.606;2024-02-26T13:36:16;17.05;;;8.95;;
25155;SDS011;71253;51.496;7.606;2024-02-26T13:41:18;14.48;;;8.68;;
25155;SDS011;71253;51.496;7.606;2024-02-26T13:46:19;16.25;;;8.65;;
25155;SDS011;71253;51.496;7.606;2024-02-26T13:51:21;13.68;;;8.23;;
25155;SDS011;71253;51.496;7.606;2024-02-26T13:56:22;14.77;;;8.40;;
25155;SDS011;71253;51.496;7.606;2024-02-26T14:01:25;20.88;;;9.43;;
25155;SDS011;71253;51.496;7.606;2024-02-26T14:06:26;16.20;;;8.68;;
25155;SDS011;71253;51.496;7.606;2024-02-26T14:11:28;19.23;;;8.77;;
25155;SDS011;71253;51.496;7.606;2024-02-26T14:16:29;19.40;;;9.20;;
25155;SDS011;71253;51.496;7.606;2024-02-26T14:21:32;19.52;;;9.20;;
25155;SDS011;71253;51.496;7.606;2024-02-26T14:26:36;20.50;;;8.60;;
25155;SDS011;71253;51.496;7.606;2024-02-26T14:31:38;20.23;;;9.48;;
25155;SDS011;71253;51.496;7.606;2024-02-26T14:36:40;15.60;;;9.13;;
25155;SDS011;71253;51.496;7.606;2024-02-26T14:41:42;18.45;;;8.98;;
25155;SDS011;71253;51.496;7.606;2024-02-26T14:46:43;17.90;;;8.90;;
25155;SDS011;71253;51.496;7.606;2024-02-26T14:51:45;18.02;;;7.93;;
25155;SDS011;71253;51.496;7.606;2024-02-26T14:56:47;14.95;;;7.80;;
25155;SDS011;71253;51.496;7.606;2024-02-26T15:01:49;12.48;;;6.90;;
25155;SDS011;71253;51.496;7.606;2024-02-26T15:06:50;15.55;;;7.05;;
25155;SDS011;71253;51.496;7.606;2024-02-26T15:11:52;10.90;;;6.40;;
25155;SDS011;71253;51.496;7.606;2024-02-26T15:16:53;15.40;;;6.10;;
25155;SDS011;71253;51.496;7.606;2024-02-26T15:21:55;10.35;;;5.30;;
25155;SDS011;71253;51.496;7.606;2024-02-26T15:26:57;11.25;;;5.35;;
25155;SDS011;71253;51.496;7.606;2024-02-26T15:31:58;9.85;;;4.72;;
25155;SDS011;71253;51.496;7.606;2024-02-26T15:37:00;11.77;;;4.90;;
25155;SDS011;71253;51.496;7.606;2024-02-26T15:42:01;15.82;;;5.18;;
25155;SDS011;71253;51.496;7.606;2024-02-26T15:47:03;8.38;;;4.40;;
25155;SDS011;71253;51.496;7.606;2024-02-26T15:52:05;9.45;;;4.32;;
25155;SDS011;71253;51.496;7.606;2024-02-26T15:57:07;10.70;;;4.68;;
25155;SDS011;71253;51.496;7.606;2024-02-26T16:02:09;11.05;;;4.85;;
25155;SDS011;71253;51.496;7.606;2024-02-26T16:07:14;10.40;;;4.57;;
25155;SDS011;71253;51.496;7.606;2024-02-26T16:12:36;10.48;;;4.43;;
25155;SDS011;71253;51.496;7.606;2024-02-26T16:17:40;9.82;;;4.65;;
25155;SDS011;71253;51.496;7.606;2024-02-26T16:22:45;10.63;;;4.75;;
25155;SDS011;71253;51.496;7.606;2024-02-26T16:27:47;16.02;;;5.85;;
25155;SDS011;71253;51.496;7.606;2024-02-26T16:32:48;11.52;;;5.03;;
25155;SDS011;71253;51.496;7.606;2024-02-26T16:37:50;10.43;;;5.35;;
25155;SDS011;71253;51.496;7.606;2024-02-26T16:42:52;10.45;;;5.63;;
25155;SDS011;71253;51.496;7.606;2024-02-26T16:47:53;10.18;;;5.82;;
25155;SDS011;71253;51.496;7.606;2024-02-26T16:52:56;10.45;;;5.78;;
25155;SDS011;71253;51.496;7.606;2024-02-26T16:57:57;11.32;;;5.60;;
25155;SDS011;71253;51.496;7.606;2024-02-26T17:02:59;12.70;;;5.53;;
25155;SDS011;71253;51.496;7.606;2024-02-26T17:08:00;11.30;;;5.25;;
25155;SDS011;71253;51.496;7.606;2024-02-26T17:13:02;10.35;;;5.30;;
25155;SDS011;71253;51.496;7.606;2024-02-26T17:18:04;13.35;;;5.10;;
25155;SDS011;71253;51.496;7.606;2024-02-26T17:23:05;12.23;;;5.28;;
25155;SDS011;71253;51.496;7.606;2024-02-26T17:28:07;8.40;;;4.60;;
25155;SDS011;71253;51.496;7.606;2024-02-26T17:33:09;10.02;;;5.18;;
25155;SDS011;71253;51.496;7.606;2024-02-26T17:38:10;8.50;;;5.05;;
25155;SDS011;71253;51.496;7.606;2024-02-26T17:43:16;8.63;;;4.95;;
25155;SDS011;71253;51.496;7.606;2024-02-26T17:48:18;9.88;;;4.90;;
25155;SDS011;71253;51.496;7.606;2024-02-26T17:53:23;8.40;;;4.90;;
25155;SDS011;71253;51.496;7.606;2024-02-26T17:58:24;9.30;;;5.00;;
25155;SDS011;71253;51.496;7.606;2024-02-26T18:03:26;10.70;;;4.18;;
25155;SDS011;71253;51.496;7.606;2024-02-26T18:08:28;11.18;;;4.75;;
25155;SDS011;71253;51.496;7.606;2024-02-26T18:13:32;7.00;;;4.13;;
25155;SDS011;71253;51.496;7.606;2024-02-26T18:18:33;11.65;;;4.05;;
25155;SDS011;71253;51.496;7.606;2024-02-26T18:23:35;9.60;;;4.07;;
25155;SDS011;71253;51.496;7.606;2024-02-26T18:28:37;7.40;;;4.20;;
25155;SDS011;71253;51.496;7.606;2024-02-26T18:33:39;8.85;;;3.97;;
25155;SDS011;71253;51.496;7.606;2024-02-26T18:38:40;8.23;;;4.35;;
25155;SDS011;71253;51.496;7.606;2024-02-26T18:43:42;8.63;;;4.10;;
25155;SDS011;71253;51.496;7.606;2024-02-26T18:48:44;7.35;;;3.85;;
25155;SDS011;71253;51.496;7.606;2024-02-26T18:53:46;6.82;;;3.70;;
25155;SDS011;71253;51.496;7.606;2024-02-26T18:58:48;7.20;;;3.72;;
25155;SDS011;71253;51.496;7.606;2024-02-26T19:03:50;7.15;;;4.10;;
25155;SDS011;71253;51.496;7.606;2024-02-26T19:08:52;6.88;;;4.22;;
25155;SDS011;71253;51.496;7.606;2024-02-26T19:13:54;8.75;;;4.53;;
25155;SDS011;71253;51.496;7.606;2024-02-26T19:18:56;8.32;;;3.80;;
25155;SDS011;71253;51.496;7.606;2024-02-26T19:23:58;10.73;;;4.25;;
25155;SDS011;71253;51.496;7.606;2024-02-26T19:29:00;9.35;;;4.65;;
25155;SDS011;71253;51.496;7.606;2024-02-26T19:34:03;12.15;;;5.00;;
25155;SDS011;71253;51.496;7.606;2024-02-26T19:39:05;8.55;;;4.72;;
25155;SDS011;71253;51.496;7.606;2024-02-26T19:44:10;11.20;;;4.75;;
25155;SDS011;71253;51.496;7.606;2024-02-26T19:49:13;9.60;;;5.15;;
25155;SDS011;71253;51.496;7.606;2024-02-26T19:54:16;10.40;;;5.28;;
25155;SDS011;71253;51.496;7.606;2024-02-26T19:59:17;13.77;;;6.20;;
25155;SDS011;71253;51.496;7.606;2024-02-26T20:04:19;11.85;;;6.25;;
25155;SDS011;71253;51.496;7.606;2024-02-26T20:09:20;11.70;;;6.50;;
25155;SDS011;71253;51.496;7.606;2024-02-26T20:14:22;12.23;;;6.90;;
25155;SDS011;71253;51.496;7.606;2024-02-26T20:19:25;15.57;;;7.35;;
25155;SDS011;71253;51.496;7.606;2024-02-26T20:24:27;12.85;;;7.57;;
25155;SDS011;71253;51.496;7.606;2024-02-26T20:29:28;13.27;;;7.47;;
25155;SDS011;71253;51.496;7.606;2024-02-26T20:34:30;12.30;;;8.05;;
25155;SDS011;71253;51.496;7.606;2024-02-26T20:39:32;14.35;;;7.95;;
25155;SDS011;71253;51.496;7.606;2024-02-26T20:44:35;12.00;;;7.72;;
25155;SDS011;71253;51.496;7.606;2024-02-26T20:49:38;16.27;;;8.25;;
25155;SDS011;71253;51.496;7.606;2024-02-26T20:54:39;15.32;;;8.18;;
25155;SDS011;71253;51.496;7.606;2024-02-26T20:59:41;15.55;;;8.40;;
25155;SDS011;71253;51.496;7.606;2024-02-26T21:04:43;14.95;;;7.80;;
25155;SDS011;71253;51.496;7.606;2024-02-26T21:09:45;17.00;;;8.13;;
25155;SDS011;71253;51.496;7.606;2024-02-26T21:14:46;14.07;;;8.27;;
25155;SDS011;71253;51.496;7.606;2024-02-26T21:19:48;13.93;;;8.52;;
25155;SDS011;71253;51.496;7.606;2024-02-26T21:24:49;19.52;;;8.27;;
25155;SDS011;71253;51.496;7.606;2024-02-26T21:29:51;13.23;;;8.80;;
25155;SDS011;71253;51.496;7.606;2024-02-26T21:34:55;14.82;;;8.35;;
25155;SDS011;71253;51.496;7.606;2024-02-26T21:39:58;15.38;;;8.50;;
25155;SDS011;71253;51.496;7.606;2024-02-26T21:44:59;19.33;;;8.95;;
25155;SDS011;71253;51.496;7.606;2024-02-26T21:50:01;16.35;;;9.25;;
25155;SDS011;71253;51.496;7.606;2024-02-26T21:55:02;15.93;;;10.15;;
25155;SDS011;71253;51.496;7.606;2024-02-26T22:00:05;21.10;;;10.93;;
25155;SDS011;71253;51.496;7.606;2024-02-26T22:05:12;22.10;;;12.18;;
25155;SDS011;71253;51.496;7.606;2024-02-26T22:10:20;23.38;;;13.45;;
25155;SDS011;71253;51.496;7.606;2024-02-26T22:15:21;28.05;;;16.48;;
25155;SDS011;71253;51.496;7.606;2024-02-26T22:20:23;29.05;;;18.38;;
25155;SDS011;71253;51.496;7.606;2024-02-26T22:25:31;41.67;;;21.90;;
25155;SDS011;71253;51.496;7.606;2024-02-26T22:30:32;39.47;;;23.20;;
25155;SDS011;71253;51.496;7.606;2024-02-26T22:35:34;45.45;;;24.67;;
25155;SDS011;71253;51.496;7.606;2024-02-26T22:40:36;45.65;;;25.88;;
25155;SDS011;71253;51.496;7.606;2024-02-26T22:45:38;45.47;;;27.38;;
25155;SDS011;71253;51.496;7.606;2024-02-26T22:50:39;48.78;;;28.83;;
25155;SDS011;71253;51.496;7.606;2024-02-26T22:55:43;49.20;;;28.17;;
25155;SDS011;71253;51.496;7.606;2024-02-26T23:00:45;53.05;;;30.27;;
25155;SDS011;71253;51.496;7.606;2024-02-26T23:05:47;51.85;;;30.00;;
25155;SDS011;71253;51.496;7.606;2024-02-26T23:10:48;52.50;;;30.73;;
25155;SDS011;71253;51.496;7.606;2024-02-26T23:15:50;56.30;;;33.85;;
25155;SDS011;71253;51.496;7.606;2024-02-26T23:20:52;56.97;;;32.55;;
25155;SDS011;71253;51.496;7.606;2024-02-26T23:25:53;62.92;;;35.15;;
25155;SDS011;71253;51.496;7.606;2024-02-26T23:30:55;63.67;;;36.00;;
25155;SDS011;71253;51.496;7.606;2024-02-26T23:35:56;62.60;;;37.38;;
25155;SDS011;71253;51.496;7.606;2024-02-26T23:40:58;60.95;;;35.10;;
25155;SDS011;71253;51.496;7.606;2024-02-26T23:45:59;57.00;;;34.20;;
25155;SDS011;71253;51.496;7.606;2024-02-26T23:51:01;60.33;;;34.88;;
25155;SDS011;71253;51.496;7.606;2024-02-26T23:56:03;60.13;;;35.28;;
